createdAt,value
2023-01-19T00:00:49.318Z,76.05
2023-01-19T00:06:52.056Z,76.18
2023-01-19T00:12:54.498Z,75.71
2023-01-19T00:18:57.959Z,77.56
2023-01-19T00:25:04.428Z,78.41
2023-01-19T00:31:06.955Z,76.51
2023-01-19T00:37:12.376Z,76.88
2023-01-19T00:43:14.853Z,77.04
2023-01-19T00:49:17.295Z,76.61
2023-01-19T00:55:19.748Z,78.21
2023-01-19T01:01:22.382Z,78.20
2023-01-19T01:07:50.962Z,77.22
2023-01-19T01:13:53.137Z,78.20
2023-01-19T01:19:55.752Z,77.94
2023-01-19T01:25:58.220Z,78.38
2023-01-19T01:32:03.692Z,78.27
2023-01-19T01:38:07.134Z,77.11
2023-01-19T01:44:50.777Z,79.43
2023-01-19T01:51:20.991Z,79.17
2023-01-19T01:57:23.834Z,79.40
2023-01-19T02:03:28.308Z,81.25
2023-01-19T02:09:55.844Z,81.31
2023-01-19T02:16:02.334Z,81.43
2023-01-19T02:22:20.834Z,80.63
2023-01-19T02:28:23.286Z,79.72
2023-01-19T02:34:25.171Z,81.08
2023-01-19T02:40:29.216Z,79.20
2023-01-19T02:46:35.692Z,80.19
2023-01-19T02:52:38.799Z,80.37
2023-01-19T02:58:55.635Z,80.30
2023-01-19T03:05:07.143Z,81.34
2023-01-19T03:11:12.589Z,80.31
2023-01-19T03:17:20.081Z,78.94
2023-01-19T03:23:28.549Z,80.45
2023-01-19T03:29:38.029Z,79.71
2023-01-19T03:35:48.513Z,79.46
2023-01-19T03:41:55.995Z,81.18
2023-01-19T03:48:00.499Z,80.89
2023-01-19T03:54:02.961Z,80.80
2023-01-19T04:00:06.450Z,81.42
2023-01-19T04:06:12.692Z,80.61
2023-01-19T04:12:15.421Z,81.28
2023-01-19T04:18:17.884Z,79.65
2023-01-19T04:24:20.411Z,80.50
2023-01-19T04:30:23.806Z,81.41
2023-01-19T04:36:26.265Z,82.51
2023-01-19T04:42:28.728Z,80.03
2023-01-19T04:48:31.166Z,82.65
2023-01-19T04:54:33.711Z,80.03
2023-01-19T05:00:37.114Z,79.02
2023-01-19T05:06:39.547Z,81.18
2023-01-19T05:12:43.028Z,82.20
2023-01-19T05:18:45.473Z,81.02
2023-01-19T05:24:47.924Z,81.13
2023-01-19T05:30:53.062Z,81.96
2023-01-19T05:36:55.853Z,83.35
2023-01-19T05:43:01.881Z,87.33
2023-01-19T05:49:05.758Z,82.70
2023-01-19T05:55:08.119Z,82.47
2023-01-19T06:01:11.726Z,87.59
2023-01-19T06:07:14.187Z,83.05
2023-01-19T06:13:16.654Z,88.41
2023-01-19T06:19:19.120Z,86.62
2023-01-19T06:25:24.151Z,88.37
2023-01-19T06:31:27.067Z,87.52
2023-01-19T06:37:31.544Z,84.93
2023-01-19T06:43:33.974Z,82.95
2023-01-19T06:49:36.440Z,83.14
2023-01-19T06:55:40.103Z,81.76
2023-01-19T07:01:42.410Z,86.04
2023-01-19T07:07:45.791Z,83.22
2023-01-19T07:13:51.866Z,83.39
2023-01-19T07:19:54.735Z,83.67
2023-01-19T07:25:59.227Z,83.22
2023-01-19T07:32:04.607Z,83.24
2023-01-19T07:38:07.109Z,81.82
2023-01-19T07:44:12.594Z,81.16
2023-01-19T07:50:17.066Z,79.69
2023-01-19T07:56:23.538Z,79.57
2023-01-19T08:02:27.079Z,78.47
2023-01-19T08:08:30.480Z,77.26
2023-01-19T08:14:34.974Z,76.46
2023-01-19T08:20:37.399Z,74.49
2023-01-19T08:26:39.863Z,74.17
2023-01-19T08:32:42.349Z,70.15
2023-01-19T08:38:48.805Z,67.96
2023-01-19T08:44:58.654Z,65.48
2023-01-19T08:51:01.793Z,64.09
2023-01-19T08:57:06.261Z,62.90
2023-01-19T09:03:11.344Z,63.04
2023-01-19T09:09:17.164Z,62.79
2023-01-19T09:15:19.652Z,62.03
2023-01-19T09:21:25.122Z,61.11
2023-01-19T09:27:27.622Z,59.81
2023-01-19T09:33:30.070Z,61.03
2023-01-19T09:39:32.608Z,61.60
2023-01-19T09:45:53.062Z,63.33
2023-01-19T09:51:57.678Z,63.18
2023-01-19T09:58:00.303Z,63.06
2023-01-19T10:04:31.640Z,62.04
2023-01-19T10:10:35.184Z,56.30
2023-01-19T10:17:06.655Z,54.61
2023-01-19T10:23:26.199Z,53.72
2023-01-19T10:29:41.502Z,51.81
2023-01-19T10:35:46.180Z,52.76
2023-01-19T10:41:56.676Z,51.44
2023-01-19T10:48:06.173Z,51.00
2023-01-19T10:54:14.787Z,51.25
2023-01-19T11:00:42.309Z,50.98
2023-01-19T11:06:47.740Z,49.94
2023-01-19T11:13:04.697Z,49.51
2023-01-19T11:19:18.783Z,47.50
2023-01-19T11:25:29.280Z,47.35
2023-01-19T11:31:37.829Z,47.13
2023-01-19T11:37:48.900Z,47.47
2023-01-19T11:43:57.776Z,45.89
2023-01-19T11:50:24.326Z,45.76
2023-01-19T11:56:29.813Z,43.86
2023-01-19T12:02:45.304Z,44.44
2023-01-19T12:09:16.045Z,43.58
2023-01-19T12:15:32.389Z,44.87
2023-01-19T12:21:38.885Z,45.15
2023-01-19T12:27:44.383Z,44.85
2023-01-19T12:33:47.843Z,45.07
2023-01-19T12:39:50.268Z,45.08
2023-01-19T12:45:52.754Z,46.79
2023-01-19T12:52:21.299Z,45.91
2023-01-19T12:58:28.715Z,46.44
2023-01-19T13:04:41.118Z,46.95
2023-01-19T13:11:05.303Z,47.10
2023-01-19T13:17:22.260Z,47.20
2023-01-19T13:23:51.970Z,47.54
2023-01-19T13:29:56.348Z,48.37
2023-01-19T13:36:01.056Z,48.80
2023-01-19T13:42:14.455Z,49.13
2023-01-19T13:48:20.910Z,49.54
2023-01-19T13:54:26.449Z,49.40
2023-01-19T14:00:31.901Z,49.97
2023-01-19T14:06:38.409Z,50.58
2023-01-19T14:12:54.453Z,51.07
2023-01-19T14:19:03.384Z,51.64
2023-01-19T14:25:51.021Z,50.87
2023-01-19T14:32:03.529Z,49.00
2023-01-19T14:38:08.970Z,49.61
2023-01-19T14:44:17.451Z,51.75
2023-01-19T14:50:27.475Z,53.64
2023-01-19T14:56:34.330Z,54.63
2023-01-19T15:02:38.895Z,56.20
2023-01-19T15:08:41.385Z,56.55
2023-01-19T15:14:50.634Z,57.25
2023-01-19T15:20:54.333Z,58.19
2023-01-19T15:27:02.870Z,58.77
2023-01-19T15:33:23.396Z,59.36
2023-01-19T15:39:26.615Z,59.77
2023-01-19T15:45:39.368Z,60.16
2023-01-19T15:51:42.821Z,61.22
2023-01-19T15:57:46.899Z,61.12
2023-01-19T16:03:50.820Z,61.42
2023-01-19T16:09:53.240Z,62.28
2023-01-19T16:16:02.628Z,62.22
2023-01-19T16:22:06.190Z,61.25
2023-01-19T16:28:19.158Z,61.62
2023-01-19T16:34:21.164Z,62.95
2023-01-19T16:40:23.619Z,63.16
2023-01-19T16:46:35.542Z,62.93
2023-01-19T16:52:40.628Z,63.82
2023-01-19T16:58:44.284Z,63.53
2023-01-19T17:04:45.991Z,63.31
2023-01-19T17:10:50.551Z,63.09
2023-01-19T17:16:52.343Z,63.59
2023-01-19T17:22:54.139Z,63.62
2023-01-19T17:29:05.366Z,65.28
2023-01-19T17:35:13.325Z,66.87
2023-01-19T17:41:20.352Z,66.36
2023-01-19T17:47:27.384Z,65.29
2023-01-19T17:53:31.279Z,68.22
2023-01-19T17:59:36.079Z,65.82
2023-01-19T18:05:38.200Z,66.66
2023-01-19T18:11:42.687Z,67.14
2023-01-19T18:17:48.508Z,63.98
2023-01-19T18:23:51.268Z,60.18
2023-01-19T18:29:54.083Z,59.21
2023-01-19T18:35:56.551Z,59.13
2023-01-19T18:41:58.632Z,57.68
2023-01-19T18:48:18.708Z,56.79
2023-01-19T18:54:20.997Z,57.20
2023-01-19T19:00:23.486Z,57.55
2023-01-19T19:06:27.227Z,57.66
2023-01-19T19:12:33.393Z,57.99
2023-01-19T19:18:38.883Z,56.55
2023-01-19T19:24:41.364Z,58.01
2023-01-19T19:30:43.875Z,57.96
2023-01-19T19:36:46.585Z,57.77
2023-01-19T19:42:51.772Z,58.13
2023-01-19T19:48:54.323Z,58.80
2023-01-19T19:55:01.612Z,58.71
2023-01-19T20:01:15.274Z,59.33
2023-01-19T20:07:18.654Z,59.58
2023-01-19T20:13:25.098Z,58.91
2023-01-19T20:19:31.755Z,58.04
2023-01-19T20:25:42.106Z,57.31
2023-01-19T20:31:51.613Z,57.70
2023-01-19T20:37:54.080Z,57.88
2023-01-19T20:43:56.543Z,57.56
2023-01-19T20:50:01.275Z,57.36
2023-01-19T20:56:12.546Z,55.92
2023-01-19T21:02:18.081Z,57.60
2023-01-19T21:08:24.678Z,57.88
2023-01-19T21:14:27.038Z,56.80
2023-01-19T21:20:32.478Z,57.48
2023-01-19T21:26:34.936Z,54.62
2023-01-19T21:32:37.497Z,54.65
2023-01-19T21:38:39.884Z,57.03
2023-01-19T21:44:42.382Z,56.93
2023-01-19T21:50:45.860Z,57.00
2023-01-19T21:56:50.791Z,58.02
2023-01-19T22:03:03.425Z,57.85
2023-01-19T22:09:07.256Z,57.96
2023-01-19T22:15:12.910Z,57.85
2023-01-19T22:21:24.204Z,58.43
2023-01-19T22:27:26.644Z,57.98
2023-01-19T22:33:29.166Z,57.73
2023-01-19T22:39:31.656Z,58.80
2023-01-19T22:45:34.104Z,59.72
2023-01-19T22:51:36.415Z,59.86
2023-01-19T22:57:40.002Z,59.56
2023-01-19T23:03:44.483Z,59.36
2023-01-19T23:09:46.947Z,59.49
2023-01-19T23:15:51.885Z,59.06
2023-01-19T23:21:53.878Z,59.85
2023-01-19T23:27:56.309Z,61.96
2023-01-19T23:34:02.744Z,59.84
2023-01-19T23:40:06.306Z,59.17
2023-01-19T23:46:12.792Z,60.42
2023-01-19T23:52:15.223Z,61.25
2023-01-19T23:58:21.853Z,61.04
